HAZ2928 ZYHB-ZSHC
Flight info
| Callsign | HAZ2928 |
|---|---|
| Flight time | 2h 45m |
| Altitude | 37100 |
| Route | DUK07D DUKIR W655 NIMEM W205 NULRA A588 BIDIB A345 DDG DCT BIGBU DCT DONVO A326 IKADI W113 SOSMA W108 MATNU W115 PINOT B221 SUPAR W505 DSH |
| Aircraft | A20N/M-SDE2E3FGHIRWXY/LB1 |
Departure
| Time | 2026-04-21 10:00 |
|---|---|
| Airport | Harbin Taiping International Airport (ZYHB) |
Arrival
| Time | 2026-04-21 12:45 |
|---|---|
| Airport | Hangzhou Xiaoshan International Airport (ZSHC) |
| Time | Latitude | Longitude | Altitude | Speed | Heading |
|---|---|---|---|---|---|
| 2026-04-21 09:37 | 45.61731 | 126.23384 | 465 ft | 0 kts | 275° |
| 2026-04-21 09:48 | 45.61730 | 126.23398 | 466 ft | 2 kts | 275° |
| 2026-04-21 09:48 | 45.61728 | 126.23419 | 466 ft | 2 kts | 275° |
| 2026-04-21 09:48 | 45.61727 | 126.23441 | 466 ft | 1 kts | 275° |
| 2026-04-21 09:49 | 45.61726 | 126.23454 | 466 ft | 2 kts | 270° |
| 2026-04-21 09:49 | 45.61728 | 126.23475 | 466 ft | 2 kts | 251° |
| 2026-04-21 09:49 | 45.61734 | 126.23495 | 466 ft | 2 kts | 236° |
| 2026-04-21 09:49 | 45.61744 | 126.23511 | 466 ft | 2 kts | 220° |
| 2026-04-21 09:50 | 45.61750 | 126.23518 | 466 ft | 1 kts | 211° |
| 2026-04-21 09:50 | 45.61752 | 126.23519 | 466 ft | 1 kts | 213° |
| 2026-04-21 09:50 | 45.61753 | 126.23520 | 466 ft | 0 kts | 213° |
| 2026-04-21 09:51 | 45.61752 | 126.23520 | 466 ft | 0 kts | 213° |
| 2026-04-21 09:51 | 45.61735 | 126.23506 | 466 ft | 6 kts | 198° |
| 2026-04-21 09:51 | 45.61667 | 126.23534 | 466 ft | 12 kts | 150° |
| 2026-04-21 09:51 | 45.61590 | 126.23589 | 466 ft | 12 kts | 142° |
| 2026-04-21 09:52 | 45.61533 | 126.23691 | 466 ft | 13 kts | 115° |
| 2026-04-21 09:52 | 45.61566 | 126.23797 | 466 ft | 12 kts | 43° |
| 2026-04-21 09:52 | 45.61631 | 126.23871 | 466 ft | 12 kts | 37° |
| 2026-04-21 09:52 | 45.61695 | 126.23948 | 466 ft | 11 kts | 38° |
| 2026-04-21 09:53 | 45.61762 | 126.24020 | 466 ft | 11 kts | 38° |
| 2026-04-21 09:53 | 45.61824 | 126.24099 | 466 ft | 12 kts | 37° |
| 2026-04-21 09:53 | 45.61888 | 126.24174 | 466 ft | 11 kts | 39° |
| 2026-04-21 09:53 | 45.61952 | 126.24249 | 466 ft | 11 kts | 36° |
| 2026-04-21 09:54 | 45.62016 | 126.24322 | 466 ft | 11 kts | 37° |
| 2026-04-21 09:54 | 45.62082 | 126.24397 | 466 ft | 12 kts | 37° |
| 2026-04-21 09:54 | 45.62148 | 126.24473 | 466 ft | 12 kts | 41° |
| 2026-04-21 09:54 | 45.62213 | 126.24551 | 466 ft | 12 kts | 39° |
| 2026-04-21 09:55 | 45.62279 | 126.24630 | 466 ft | 12 kts | 40° |
| 2026-04-21 09:55 | 45.62352 | 126.24715 | 466 ft | 15 kts | 39° |
| 2026-04-21 09:55 | 45.62440 | 126.24817 | 466 ft | 17 kts | 38° |
| 2026-04-21 09:55 | 45.62538 | 126.24933 | 466 ft | 19 kts | 39° |
| 2026-04-21 09:56 | 45.62644 | 126.25056 | 466 ft | 19 kts | 40° |
| 2026-04-21 09:56 | 45.62747 | 126.25176 | 466 ft | 18 kts | 41° |
| 2026-04-21 09:56 | 45.62846 | 126.25294 | 466 ft | 18 kts | 39° |
| 2026-04-21 09:56 | 45.62944 | 126.25408 | 466 ft | 17 kts | 40° |
| 2026-04-21 09:57 | 45.63038 | 126.25520 | 466 ft | 17 kts | 38° |
| 2026-04-21 09:57 | 45.63131 | 126.25626 | 466 ft | 17 kts | 38° |
| 2026-04-21 09:57 | 45.63221 | 126.25731 | 466 ft | 16 kts | 37° |
| 2026-04-21 09:57 | 45.63314 | 126.25834 | 466 ft | 16 kts | 41° |
| 2026-04-21 09:58 | 45.63397 | 126.25941 | 466 ft | 16 kts | 40° |
| 2026-04-21 09:58 | 45.63479 | 126.26048 | 466 ft | 15 kts | 39° |
| 2026-04-21 09:58 | 45.63563 | 126.26150 | 466 ft | 15 kts | 45° |
| 2026-04-21 09:58 | 45.63543 | 126.26257 | 466 ft | 13 kts | 148° |
| 2026-04-21 09:59 | 45.63452 | 126.26293 | 466 ft | 13 kts | 191° |
| 2026-04-21 09:59 | 45.63376 | 126.26224 | 466 ft | 14 kts | 217° |
| 2026-04-21 09:59 | 45.63116 | 126.25916 | 466 ft | 84 kts | 220° |
| 2026-04-21 09:59 | 45.62494 | 126.25188 | 466 ft | 145 kts | 221° |
| 2026-04-21 10:00 | 45.61612 | 126.24233 | 820 ft | 161 kts | 223° |
| 2026-04-21 10:00 | 45.60738 | 126.23238 | 1382 ft | 163 kts | 227° |
| 2026-04-21 10:00 | 45.59852 | 126.22176 | 1872 ft | 175 kts | 229° |
| 2026-04-21 10:00 | 45.58901 | 126.21025 | 2376 ft | 187 kts | 229° |
| 2026-04-21 10:01 | 45.57872 | 126.19789 | 2824 ft | 203 kts | 228° |
| 2026-04-21 10:01 | 45.56763 | 126.18479 | 3453 ft | 209 kts | 227° |
| 2026-04-21 10:01 | 45.55644 | 126.17173 | 4160 ft | 210 kts | 228° |
| 2026-04-21 10:01 | 45.54519 | 126.15862 | 4861 ft | 212 kts | 228° |
| 2026-04-21 10:02 | 45.52245 | 126.13214 | 6301 ft | 213 kts | 229° |
| 2026-04-21 10:02 | 45.51107 | 126.11892 | 7021 ft | 213 kts | 229° |
| 2026-04-21 10:02 | 45.49971 | 126.10565 | 7655 ft | 217 kts | 228° |
| 2026-04-21 10:03 | 45.48764 | 126.09137 | 7994 ft | 239 kts | 227° |
| 2026-04-21 10:03 | 45.47435 | 126.07577 | 8438 ft | 257 kts | 227° |
| 2026-04-21 10:03 | 45.46016 | 126.05926 | 9072 ft | 268 kts | 226° |
| 2026-04-21 10:03 | 45.44567 | 126.04255 | 9968 ft | 269 kts | 226° |
| 2026-04-21 10:04 | 45.43102 | 126.02562 | 10605 ft | 279 kts | 227° |
| 2026-04-21 10:04 | 45.42089 | 126.01385 | 10868 ft | 291 kts | 227° |
| 2026-04-21 10:04 | 45.39907 | 125.98848 | 11347 ft | 315 kts | 227° |
| 2026-04-21 10:04 | 45.38158 | 125.96891 | 11659 ft | 336 kts | 221° |
| 2026-04-21 10:05 | 45.35950 | 125.95418 | 12186 ft | 360 kts | 205° |
| 2026-04-21 10:05 | 45.33453 | 125.94853 | 12948 ft | 376 kts | 191° |
| 2026-04-21 10:05 | 45.30820 | 125.94801 | 13648 ft | 382 kts | 189° |
| 2026-04-21 10:05 | 45.28148 | 125.94813 | 14285 ft | 387 kts | 189° |
| 2026-04-21 10:06 | 45.25478 | 125.94816 | 14947 ft | 390 kts | 189° |
| 2026-04-21 10:06 | 45.22740 | 125.94801 | 15605 ft | 394 kts | 190° |
| 2026-04-21 10:06 | 45.19991 | 125.94781 | 16250 ft | 397 kts | 191° |
| 2026-04-21 10:06 | 45.17239 | 125.94757 | 16884 ft | 400 kts | 191° |
| 2026-04-21 10:07 | 45.14393 | 125.94726 | 17475 ft | 405 kts | 191° |
| 2026-04-21 10:07 | 45.11579 | 125.94698 | 18076 ft | 408 kts | 191° |
| 2026-04-21 10:07 | 45.08736 | 125.94673 | 18679 ft | 411 kts | 191° |
| 2026-04-21 10:07 | 45.05872 | 125.94647 | 19304 ft | 413 kts | 191° |
| 2026-04-21 10:08 | 45.02985 | 125.94619 | 19875 ft | 416 kts | 191° |
| 2026-04-21 10:08 | 45.00128 | 125.94594 | 20450 ft | 419 kts | 191° |
| 2026-04-21 10:08 | 44.97196 | 125.94567 | 20929 ft | 424 kts | 192° |
| 2026-04-21 10:08 | 44.94240 | 125.94539 | 21472 ft | 427 kts | 191° |
| 2026-04-21 10:09 | 44.91261 | 125.94509 | 21952 ft | 431 kts | 191° |
| 2026-04-21 10:09 | 44.88241 | 125.94485 | 22494 ft | 433 kts | 191° |
| 2026-04-21 10:09 | 44.86234 | 125.94468 | 22876 ft | 434 kts | 191° |
| 2026-04-21 10:09 | 44.82184 | 125.94433 | 23501 ft | 438 kts | 191° |
| 2026-04-21 10:10 | 44.79174 | 125.94407 | 23936 ft | 441 kts | 192° |
| 2026-04-21 10:10 | 44.76091 | 125.94315 | 24339 ft | 441 kts | 194° |
| 2026-04-21 10:10 | 44.73027 | 125.93990 | 24767 ft | 438 kts | 197° |
| 2026-04-21 10:10 | 44.70011 | 125.93423 | 25192 ft | 436 kts | 200° |
| 2026-04-21 10:11 | 44.67000 | 125.92756 | 25520 ft | 440 kts | 200° |
| 2026-04-21 10:11 | 44.63981 | 125.92091 | 25962 ft | 440 kts | 200° |
| 2026-04-21 10:11 | 44.60945 | 125.91428 | 26304 ft | 443 kts | 200° |
| 2026-04-21 10:11 | 44.57936 | 125.90767 | 26653 ft | 444 kts | 200° |
| 2026-04-21 10:12 | 44.54879 | 125.90096 | 26967 ft | 446 kts | 200° |
| 2026-04-21 10:12 | 44.51804 | 125.89423 | 27235 ft | 448 kts | 201° |
| 2026-04-21 10:12 | 44.48715 | 125.88750 | 27509 ft | 451 kts | 201° |
| 2026-04-21 10:12 | 44.45596 | 125.88065 | 27753 ft | 454 kts | 201° |
| 2026-04-21 10:13 | 44.42482 | 125.87386 | 28020 ft | 454 kts | 201° |
| 2026-04-21 10:13 | 44.39377 | 125.86716 | 28426 ft | 452 kts | 201° |
| 2026-04-21 10:13 | 44.36274 | 125.86044 | 28750 ft | 451 kts | 202° |
| 2026-04-21 10:13 | 44.33176 | 125.85371 | 28996 ft | 452 kts | 202° |
| 2026-04-21 10:14 | 44.30087 | 125.84696 | 29200 ft | 454 kts | 202° |
| 2026-04-21 10:14 | 44.26965 | 125.84019 | 29533 ft | 452 kts | 202° |
| 2026-04-21 10:14 | 44.24220 | 125.83433 | 29872 ft | 449 kts | 202° |
| 2026-04-21 10:14 | 44.21115 | 125.82760 | 30100 ft | 451 kts | 203° |
| 2026-04-21 10:15 | 44.18010 | 125.82139 | 30301 ft | 457 kts | 200° |
| 2026-04-21 10:15 | 44.14792 | 125.81870 | 30651 ft | 465 kts | 195° |
| 2026-04-21 10:15 | 44.12633 | 125.81912 | 30867 ft | 471 kts | 192° |
| 2026-04-21 10:15 | 44.08223 | 125.82570 | 31168 ft | 487 kts | 184° |
| 2026-04-21 10:16 | 44.04871 | 125.83611 | 31427 ft | 497 kts | 178° |
| 2026-04-21 10:16 | 44.01541 | 125.84965 | 31839 ft | 493 kts | 178° |
| 2026-04-21 10:16 | 43.98296 | 125.86146 | 32205 ft | 482 kts | 182° |
| 2026-04-21 10:16 | 43.95023 | 125.86974 | 32413 ft | 472 kts | 188° |
| 2026-04-21 10:17 | 43.91799 | 125.87356 | 32511 ft | 464 kts | 194° |
| 2026-04-21 10:17 | 43.85476 | 125.86880 | 32760 ft | 445 kts | 204° |
| 2026-04-21 10:17 | 43.82451 | 125.86098 | 32993 ft | 434 kts | 209° |
| 2026-04-21 10:18 | 43.79565 | 125.85085 | 33209 ft | 427 kts | 212° |
| 2026-04-21 10:18 | 43.76741 | 125.83856 | 33400 ft | 420 kts | 216° |
| 2026-04-21 10:18 | 43.74047 | 125.82461 | 33544 ft | 415 kts | 218° |
| 2026-04-21 10:18 | 43.71416 | 125.80880 | 33747 ft | 408 kts | 221° |
| 2026-04-21 10:19 | 43.68880 | 125.79137 | 33786 ft | 407 kts | 223° |
| 2026-04-21 10:19 | 43.63816 | 125.75490 | 33791 ft | 416 kts | 223° |
| 2026-04-21 10:20 | 43.59487 | 125.72405 | 33802 ft | 422 kts | 223° |
| 2026-04-21 10:20 | 43.53662 | 125.68278 | 33798 ft | 415 kts | 223° |
| 2026-04-21 10:20 | 43.51960 | 125.67091 | 33794 ft | 404 kts | 223° |
| 2026-04-21 10:21 | 43.48667 | 125.64774 | 33805 ft | 399 kts | 224° |
| 2026-04-21 10:21 | 43.43684 | 125.61214 | 33812 ft | 408 kts | 224° |
| 2026-04-21 10:22 | 43.38608 | 125.57608 | 33833 ft | 415 kts | 224° |
| 2026-04-21 10:22 | 43.33470 | 125.53986 | 33847 ft | 415 kts | 224° |
| 2026-04-21 10:23 | 43.29185 | 125.50970 | 33842 ft | 416 kts | 224° |
| 2026-04-21 10:23 | 43.23180 | 125.46755 | 33845 ft | 417 kts | 224° |
| 2026-04-21 10:24 | 43.18018 | 125.43130 | 33834 ft | 416 kts | 224° |
| 2026-04-21 10:24 | 43.12899 | 125.39542 | 33838 ft | 412 kts | 224° |
| 2026-04-21 10:25 | 43.07804 | 125.35983 | 33836 ft | 413 kts | 224° |
| 2026-04-21 10:25 | 43.02660 | 125.32396 | 33825 ft | 414 kts | 224° |
| 2026-04-21 10:25 | 43.00137 | 125.30637 | 33699 ft | 409 kts | 224° |
| 2026-04-21 10:26 | 42.97596 | 125.28877 | 33227 ft | 406 kts | 224° |
| 2026-04-21 10:26 | 42.95937 | 125.27722 | 32693 ft | 408 kts | 225° |
| 2026-04-21 10:26 | 42.92550 | 125.25341 | 32031 ft | 417 kts | 224° |
| 2026-04-21 10:26 | 42.89940 | 125.23521 | 31844 ft | 422 kts | 223° |
| 2026-04-21 10:27 | 42.87306 | 125.21696 | 31824 ft | 425 kts | 224° |
| 2026-04-21 10:27 | 42.82035 | 125.18062 | 31840 ft | 422 kts | 223° |
| 2026-04-21 10:28 | 42.76868 | 125.14442 | 31848 ft | 419 kts | 224° |
| 2026-04-21 10:28 | 42.71689 | 125.10798 | 31838 ft | 419 kts | 223° |
| 2026-04-21 10:29 | 42.67375 | 125.07775 | 31829 ft | 417 kts | 224° |
| 2026-04-21 10:29 | 42.61365 | 125.03567 | 31839 ft | 416 kts | 224° |
| 2026-04-21 10:30 | 42.57059 | 125.00558 | 31848 ft | 419 kts | 224° |
| 2026-04-21 10:30 | 42.51033 | 124.96359 | 31872 ft | 418 kts | 223° |
| 2026-04-21 10:31 | 42.46712 | 124.93354 | 31874 ft | 417 kts | 223° |
| 2026-04-21 10:31 | 42.40722 | 124.89199 | 31857 ft | 420 kts | 224° |
| 2026-04-21 10:32 | 42.35535 | 124.85603 | 31871 ft | 419 kts | 224° |
| 2026-04-21 10:32 | 42.31231 | 124.82629 | 31868 ft | 417 kts | 223° |
| 2026-04-21 10:33 | 42.25207 | 124.78473 | 31872 ft | 416 kts | 224° |
| 2026-04-21 10:33 | 42.20037 | 124.74908 | 31858 ft | 419 kts | 224° |
| 2026-04-21 10:34 | 42.14852 | 124.71343 | 31869 ft | 418 kts | 223° |
| 2026-04-21 10:34 | 42.10556 | 124.68399 | 31864 ft | 415 kts | 223° |
| 2026-04-21 10:35 | 42.04569 | 124.64300 | 31874 ft | 412 kts | 223° |
| 2026-04-21 10:35 | 41.99455 | 124.60801 | 31882 ft | 415 kts | 223° |
| 2026-04-21 10:36 | 41.94473 | 124.57081 | 31877 ft | 411 kts | 226° |
| 2026-04-21 10:36 | 41.89510 | 124.53293 | 31879 ft | 411 kts | 226° |
| 2026-04-21 10:37 | 41.84507 | 124.49480 | 31891 ft | 410 kts | 225° |
| 2026-04-21 10:37 | 41.79570 | 124.45734 | 31898 ft | 408 kts | 225° |
| 2026-04-21 10:38 | 41.74638 | 124.41985 | 31905 ft | 408 kts | 225° |
| 2026-04-21 10:38 | 41.70501 | 124.38845 | 31901 ft | 411 kts | 225° |
| 2026-04-21 10:39 | 41.64696 | 124.34448 | 31899 ft | 412 kts | 224° |
| 2026-04-21 10:39 | 41.60524 | 124.31293 | 31902 ft | 414 kts | 224° |
| 2026-04-21 10:40 | 41.54659 | 124.26867 | 31908 ft | 413 kts | 224° |
| 2026-04-21 10:40 | 41.49693 | 124.23132 | 31915 ft | 413 kts | 223° |
| 2026-04-21 10:41 | 41.45256 | 124.20393 | 31917 ft | 427 kts | 216° |
| 2026-04-21 10:41 | 41.41428 | 124.18748 | 31916 ft | 444 kts | 210° |
| 2026-04-21 10:41 | 41.38372 | 124.17853 | 31913 ft | 455 kts | 205° |
| 2026-04-21 10:42 | 41.31945 | 124.17136 | 31928 ft | 473 kts | 195° |
| 2026-04-21 10:42 | 41.25269 | 124.17565 | 31932 ft | 486 kts | 191° |
| 2026-04-21 10:43 | 41.18495 | 124.18180 | 31933 ft | 485 kts | 191° |
| 2026-04-21 10:43 | 41.12906 | 124.18671 | 31930 ft | 483 kts | 191° |
| 2026-04-21 10:44 | 41.05129 | 124.19324 | 31928 ft | 482 kts | 191° |
| 2026-04-21 10:44 | 40.98414 | 124.20033 | 31932 ft | 483 kts | 189° |
| 2026-04-21 10:45 | 40.92818 | 124.20692 | 31940 ft | 484 kts | 189° |
| 2026-04-21 10:45 | 40.85040 | 124.21596 | 31940 ft | 481 kts | 189° |
| 2026-04-21 10:46 | 40.79490 | 124.22231 | 31943 ft | 481 kts | 189° |
| 2026-04-21 10:46 | 40.72806 | 124.22992 | 31946 ft | 481 kts | 189° |
| 2026-04-21 10:47 | 40.65063 | 124.23876 | 31955 ft | 477 kts | 189° |
| 2026-04-21 10:47 | 40.59503 | 124.24500 | 31959 ft | 482 kts | 189° |
| 2026-04-21 10:48 | 40.52857 | 124.25254 | 31961 ft | 479 kts | 189° |
| 2026-04-21 10:48 | 40.45148 | 124.26127 | 31967 ft | 477 kts | 189° |
| 2026-04-21 10:49 | 40.38526 | 124.26873 | 31973 ft | 478 kts | 188° |
| 2026-04-21 10:49 | 40.32991 | 124.27486 | 31971 ft | 473 kts | 190° |
| 2026-04-21 10:50 | 40.26485 | 124.27606 | 31978 ft | 463 kts | 196° |
| 2026-04-21 10:50 | 40.22266 | 124.27190 | 31982 ft | 452 kts | 200° |
| 2026-04-21 10:50 | 40.19173 | 124.26639 | 31984 ft | 445 kts | 203° |
| 2026-04-21 10:51 | 40.14131 | 124.25375 | 31984 ft | 441 kts | 205° |
| 2026-04-21 10:51 | 40.07094 | 124.23569 | 31979 ft | 442 kts | 204° |
| 2026-04-21 10:52 | 40.01040 | 124.22030 | 31985 ft | 444 kts | 204° |
| 2026-04-21 10:52 | 39.96028 | 124.20759 | 31988 ft | 440 kts | 204° |
| 2026-04-21 10:53 | 39.90011 | 124.19235 | 31997 ft | 442 kts | 204° |
| 2026-04-21 10:53 | 39.83985 | 124.17709 | 32012 ft | 443 kts | 204° |
| 2026-04-21 10:54 | 39.76907 | 124.15918 | 32011 ft | 442 kts | 204° |
| 2026-04-21 10:54 | 39.70878 | 124.14395 | 32016 ft | 442 kts | 204° |
| 2026-04-21 10:55 | 39.64865 | 124.12885 | 32017 ft | 439 kts | 204° |
| 2026-04-21 10:55 | 39.58845 | 124.11369 | 32024 ft | 440 kts | 204° |
| 2026-04-21 10:56 | 39.52832 | 124.09858 | 32030 ft | 441 kts | 204° |
| 2026-04-21 10:56 | 39.47786 | 124.08590 | 32034 ft | 440 kts | 203° |
| 2026-04-21 10:57 | 39.40810 | 124.06848 | 32047 ft | 440 kts | 204° |
| 2026-04-21 10:57 | 39.35805 | 124.05598 | 32050 ft | 439 kts | 204° |
| 2026-04-21 10:58 | 39.28811 | 124.03859 | 32058 ft | 437 kts | 204° |
| 2026-04-21 10:58 | 39.23799 | 124.02608 | 32052 ft | 439 kts | 203° |
| 2026-04-21 10:59 | 39.16823 | 124.00873 | 32063 ft | 439 kts | 203° |
| 2026-04-21 10:59 | 39.10818 | 123.99386 | 32065 ft | 437 kts | 203° |
| 2026-04-21 11:00 | 39.05839 | 123.98154 | 32074 ft | 440 kts | 203° |
| 2026-04-21 11:00 | 38.99865 | 123.96680 | 32073 ft | 437 kts | 203° |
| 2026-04-21 11:01 | 38.93862 | 123.95195 | 32078 ft | 439 kts | 203° |
| 2026-04-21 11:01 | 38.86816 | 123.93459 | 32087 ft | 440 kts | 202° |
| 2026-04-21 11:02 | 38.77819 | 123.91251 | 32099 ft | 439 kts | 203° |
| 2026-04-21 11:02 | 38.71847 | 123.89728 | 32106 ft | 436 kts | 205° |
| 2026-04-21 11:03 | 38.66063 | 123.87633 | 32107 ft | 428 kts | 210° |
| 2026-04-21 11:03 | 38.61475 | 123.85420 | 32109 ft | 423 kts | 212° |
| 2026-04-21 11:04 | 38.55998 | 123.82668 | 32107 ft | 422 kts | 212° |
| 2026-04-21 11:04 | 38.50536 | 123.79926 | 32108 ft | 424 kts | 212° |
| 2026-04-21 11:05 | 38.44106 | 123.76697 | 32109 ft | 424 kts | 212° |
| 2026-04-21 11:05 | 38.38629 | 123.73947 | 32114 ft | 424 kts | 212° |
| 2026-04-21 11:06 | 38.33149 | 123.71204 | 32112 ft | 423 kts | 212° |
| 2026-04-21 11:06 | 38.28550 | 123.68906 | 32114 ft | 424 kts | 212° |
| 2026-04-21 11:07 | 38.22141 | 123.65705 | 32114 ft | 426 kts | 212° |
| 2026-04-21 11:07 | 38.16635 | 123.62962 | 32119 ft | 426 kts | 212° |
| 2026-04-21 11:08 | 38.11092 | 123.60201 | 32119 ft | 424 kts | 212° |
| 2026-04-21 11:08 | 38.05590 | 123.57470 | 32116 ft | 426 kts | 212° |
| 2026-04-21 11:09 | 38.00091 | 123.54739 | 32120 ft | 424 kts | 211° |
| 2026-04-21 11:09 | 37.94586 | 123.52013 | 32121 ft | 425 kts | 211° |
| 2026-04-21 11:10 | 37.89069 | 123.49281 | 32130 ft | 427 kts | 211° |
| 2026-04-21 11:10 | 37.84431 | 123.46993 | 32133 ft | 425 kts | 211° |
| 2026-04-21 11:11 | 37.78003 | 123.43826 | 32130 ft | 428 kts | 211° |
| 2026-04-21 11:11 | 37.72459 | 123.41096 | 32136 ft | 428 kts | 211° |
| 2026-04-21 11:12 | 37.67800 | 123.38806 | 32139 ft | 427 kts | 211° |
| 2026-04-21 11:12 | 37.62136 | 123.36324 | 32145 ft | 435 kts | 206° |
| 2026-04-21 11:13 | 37.56180 | 123.34600 | 32150 ft | 444 kts | 199° |
| 2026-04-21 11:13 | 37.48946 | 123.33675 | 32147 ft | 453 kts | 192° |
| 2026-04-21 11:14 | 37.43628 | 123.33706 | 32152 ft | 461 kts | 189° |
| 2026-04-21 11:14 | 37.37246 | 123.33888 | 32155 ft | 459 kts | 189° |
| 2026-04-21 11:15 | 37.29754 | 123.34098 | 32158 ft | 460 kts | 189° |
| 2026-04-21 11:15 | 37.24397 | 123.34249 | 32163 ft | 462 kts | 188° |
| 2026-04-21 11:16 | 37.18003 | 123.34431 | 32167 ft | 461 kts | 189° |
| 2026-04-21 11:16 | 37.11542 | 123.34611 | 32167 ft | 462 kts | 188° |
| 2026-04-21 11:17 | 37.05142 | 123.34794 | 32177 ft | 462 kts | 188° |
| 2026-04-21 11:17 | 36.97688 | 123.35007 | 32180 ft | 460 kts | 188° |
| 2026-04-21 11:18 | 36.92296 | 123.35156 | 32166 ft | 462 kts | 188° |
| 2026-04-21 11:18 | 36.84812 | 123.35366 | 32170 ft | 463 kts | 188° |
| 2026-04-21 11:19 | 36.79395 | 123.35516 | 32173 ft | 463 kts | 188° |
| 2026-04-21 11:19 | 36.71871 | 123.35724 | 32171 ft | 462 kts | 188° |
| 2026-04-21 11:20 | 36.66517 | 123.35873 | 32171 ft | 463 kts | 188° |
| 2026-04-21 11:20 | 36.60079 | 123.36051 | 32172 ft | 462 kts | 188° |
| 2026-04-21 11:21 | 36.53618 | 123.36234 | 32179 ft | 464 kts | 188° |
| 2026-04-21 11:21 | 36.47165 | 123.36414 | 32178 ft | 464 kts | 188° |
| 2026-04-21 11:22 | 36.39612 | 123.36628 | 32177 ft | 465 kts | 188° |
| 2026-04-21 11:22 | 36.33151 | 123.36803 | 32178 ft | 464 kts | 187° |
| 2026-04-21 11:23 | 36.27735 | 123.36953 | 32184 ft | 467 kts | 188° |
| 2026-04-21 11:23 | 36.20171 | 123.37167 | 32184 ft | 464 kts | 188° |
| 2026-04-21 11:24 | 36.14777 | 123.37319 | 32185 ft | 465 kts | 188° |
| 2026-04-21 11:24 | 36.07240 | 123.37529 | 32182 ft | 466 kts | 187° |
| 2026-04-21 11:25 | 36.00707 | 123.37712 | 32191 ft | 466 kts | 187° |
| 2026-04-21 11:25 | 35.95297 | 123.37865 | 32186 ft | 466 kts | 187° |
| 2026-04-21 11:26 | 35.88792 | 123.38049 | 32185 ft | 467 kts | 187° |
| 2026-04-21 11:26 | 35.82298 | 123.38232 | 32189 ft | 467 kts | 187° |
| 2026-04-21 11:27 | 35.75809 | 123.38413 | 32192 ft | 468 kts | 187° |
| 2026-04-21 11:27 | 35.68181 | 123.38627 | 32194 ft | 469 kts | 187° |
| 2026-04-21 11:28 | 35.62733 | 123.38777 | 32182 ft | 468 kts | 187° |
| 2026-04-21 11:28 | 35.56237 | 123.38960 | 32191 ft | 468 kts | 187° |
| 2026-04-21 11:29 | 35.49727 | 123.39145 | 32193 ft | 468 kts | 187° |
| 2026-04-21 11:29 | 35.42106 | 123.39355 | 32189 ft | 469 kts | 187° |
| 2026-04-21 11:30 | 35.35585 | 123.39535 | 32187 ft | 468 kts | 187° |
| 2026-04-21 11:30 | 35.30138 | 123.39690 | 32189 ft | 467 kts | 187° |
| 2026-04-21 11:31 | 35.23643 | 123.39871 | 32187 ft | 468 kts | 187° |
| 2026-04-21 11:31 | 35.17126 | 123.40054 | 32190 ft | 468 kts | 187° |
| 2026-04-21 11:32 | 35.09499 | 123.40266 | 32189 ft | 469 kts | 187° |
| 2026-04-21 11:32 | 35.04069 | 123.40415 | 32188 ft | 468 kts | 187° |
| 2026-04-21 11:33 | 34.97529 | 123.40738 | 32190 ft | 471 kts | 184° |
| 2026-04-21 11:33 | 34.90998 | 123.41290 | 32191 ft | 471 kts | 184° |
| 2026-04-21 11:34 | 34.83346 | 123.41943 | 32189 ft | 471 kts | 184° |
| 2026-04-21 11:34 | 34.77888 | 123.42408 | 32187 ft | 472 kts | 184° |
| 2026-04-21 11:35 | 34.71327 | 123.42971 | 32185 ft | 472 kts | 183° |
| 2026-04-21 11:35 | 34.64766 | 123.43541 | 32187 ft | 472 kts | 184° |
| 2026-04-21 11:36 | 34.57129 | 123.44202 | 32186 ft | 471 kts | 183° |
| 2026-04-21 11:36 | 34.51652 | 123.44675 | 32186 ft | 472 kts | 183° |
| 2026-04-21 11:37 | 34.45073 | 123.45242 | 32189 ft | 473 kts | 183° |
| 2026-04-21 11:37 | 34.37424 | 123.45905 | 32183 ft | 473 kts | 183° |
| 2026-04-21 11:38 | 34.31938 | 123.46379 | 32189 ft | 473 kts | 183° |
| 2026-04-21 11:38 | 34.25408 | 123.46942 | 32186 ft | 472 kts | 183° |
| 2026-04-21 11:39 | 34.18880 | 123.47262 | 32172 ft | 460 kts | 193° |
| 2026-04-21 11:39 | 34.15782 | 123.46453 | 32182 ft | 448 kts | 205° |
| 2026-04-21 11:39 | 34.12974 | 123.44872 | 32181 ft | 437 kts | 217° |
| 2026-04-21 11:40 | 34.10585 | 123.42683 | 32182 ft | 430 kts | 228° |
| 2026-04-21 11:40 | 34.08117 | 123.39011 | 32187 ft | 422 kts | 242° |
| 2026-04-21 11:40 | 34.06095 | 123.32474 | 32190 ft | 418 kts | 257° |
| 2026-04-21 11:41 | 34.04953 | 123.26798 | 32184 ft | 418 kts | 257° |
| 2026-04-21 11:41 | 34.03369 | 123.18850 | 32187 ft | 419 kts | 257° |
| 2026-04-21 11:42 | 34.02239 | 123.13179 | 32183 ft | 418 kts | 258° |
| 2026-04-21 11:42 | 34.00872 | 123.06325 | 32184 ft | 420 kts | 257° |
| 2026-04-21 11:43 | 33.99286 | 122.98368 | 32182 ft | 419 kts | 257° |
| 2026-04-21 11:43 | 33.97922 | 122.91547 | 32181 ft | 420 kts | 257° |
| 2026-04-21 11:44 | 33.96773 | 122.85819 | 32184 ft | 421 kts | 257° |
| 2026-04-21 11:44 | 33.95394 | 122.78966 | 32183 ft | 422 kts | 257° |
| 2026-04-21 11:45 | 33.94017 | 122.72154 | 32184 ft | 421 kts | 258° |
| 2026-04-21 11:45 | 33.92623 | 122.65260 | 32184 ft | 422 kts | 257° |
| 2026-04-21 11:46 | 33.91195 | 122.58239 | 32185 ft | 422 kts | 258° |
| 2026-04-21 11:46 | 33.89765 | 122.51208 | 32186 ft | 422 kts | 257° |
| 2026-04-21 11:47 | 33.88335 | 122.44206 | 32183 ft | 421 kts | 257° |
| 2026-04-21 11:47 | 33.86875 | 122.37089 | 32183 ft | 422 kts | 258° |
| 2026-04-21 11:48 | 33.85431 | 122.30067 | 32182 ft | 421 kts | 257° |
| 2026-04-21 11:48 | 33.84323 | 122.24699 | 32183 ft | 421 kts | 257° |
| 2026-04-21 11:49 | 33.82919 | 122.17897 | 32181 ft | 421 kts | 257° |
| 2026-04-21 11:49 | 33.81264 | 122.09929 | 32182 ft | 423 kts | 257° |
| 2026-04-21 11:50 | 33.80088 | 122.04266 | 32184 ft | 423 kts | 257° |
| 2026-04-21 11:50 | 33.78654 | 121.97392 | 32178 ft | 422 kts | 257° |
| 2026-04-21 11:51 | 33.77232 | 121.90596 | 32180 ft | 422 kts | 257° |
| 2026-04-21 11:51 | 33.75797 | 121.83765 | 32176 ft | 423 kts | 257° |
| 2026-04-21 11:52 | 33.73729 | 121.75943 | 32161 ft | 428 kts | 243° |
| 2026-04-21 11:52 | 33.70356 | 121.71551 | 32170 ft | 442 kts | 220° |
| 2026-04-21 11:53 | 33.67591 | 121.69836 | 32168 ft | 455 kts | 206° |
| 2026-04-21 11:53 | 33.64415 | 121.69045 | 32166 ft | 470 kts | 190° |
| 2026-04-21 11:53 | 33.61155 | 121.69343 | 32168 ft | 485 kts | 173° |
| 2026-04-21 11:53 | 33.57925 | 121.70807 | 32170 ft | 498 kts | 159° |
| 2026-04-21 11:54 | 33.51660 | 121.74216 | 32169 ft | 495 kts | 163° |
| 2026-04-21 11:54 | 33.45340 | 121.77495 | 32168 ft | 497 kts | 163° |
| 2026-04-21 11:55 | 33.38986 | 121.80720 | 32165 ft | 495 kts | 163° |
| 2026-04-21 11:55 | 33.32590 | 121.83876 | 32165 ft | 496 kts | 163° |
| 2026-04-21 11:56 | 33.26195 | 121.86994 | 32164 ft | 498 kts | 163° |
| 2026-04-21 11:56 | 33.18720 | 121.90623 | 32161 ft | 497 kts | 163° |
| 2026-04-21 11:57 | 33.13360 | 121.93223 | 32162 ft | 498 kts | 163° |
| 2026-04-21 11:57 | 33.06960 | 121.96316 | 32163 ft | 496 kts | 163° |
| 2026-04-21 11:58 | 33.00582 | 121.99396 | 32161 ft | 498 kts | 163° |
| 2026-04-21 11:58 | 32.94168 | 122.02490 | 32161 ft | 497 kts | 163° |
| 2026-04-21 11:59 | 32.87771 | 122.05570 | 32162 ft | 498 kts | 163° |
| 2026-04-21 11:59 | 32.81332 | 122.08665 | 32161 ft | 498 kts | 163° |
| 2026-04-21 12:00 | 32.74851 | 122.11775 | 32160 ft | 497 kts | 163° |
| 2026-04-21 12:00 | 32.68404 | 122.14867 | 32158 ft | 496 kts | 163° |
| 2026-04-21 12:01 | 32.62008 | 122.17926 | 32157 ft | 495 kts | 163° |
| 2026-04-21 12:01 | 32.55621 | 122.20977 | 32156 ft | 494 kts | 163° |
| 2026-04-21 12:02 | 32.46096 | 122.25520 | 32155 ft | 494 kts | 162° |
| 2026-04-21 12:03 | 32.39714 | 122.28560 | 32158 ft | 493 kts | 163° |
| 2026-04-21 12:03 | 32.33342 | 122.31587 | 32159 ft | 491 kts | 162° |
| 2026-04-21 12:04 | 32.27037 | 122.34579 | 32161 ft | 491 kts | 163° |
| 2026-04-21 12:04 | 32.20667 | 122.37596 | 32161 ft | 491 kts | 163° |
| 2026-04-21 12:05 | 32.14331 | 122.40595 | 32161 ft | 490 kts | 163° |
| 2026-04-21 12:05 | 32.08022 | 122.43572 | 32156 ft | 489 kts | 163° |
| 2026-04-21 12:06 | 32.01715 | 122.46548 | 32155 ft | 487 kts | 162° |
| 2026-04-21 12:06 | 31.95449 | 122.49501 | 32151 ft | 488 kts | 162° |
| 2026-04-21 12:07 | 31.89121 | 122.52480 | 32150 ft | 488 kts | 162° |
| 2026-04-21 12:07 | 31.82810 | 122.55451 | 32146 ft | 490 kts | 162° |
| 2026-04-21 12:08 | 31.76478 | 122.58404 | 32148 ft | 488 kts | 165° |
| 2026-04-21 12:08 | 31.69919 | 122.59860 | 32142 ft | 476 kts | 183° |
| 2026-04-21 12:09 | 31.63441 | 122.58946 | 32143 ft | 462 kts | 200° |
| 2026-04-21 12:09 | 31.57648 | 122.55964 | 32143 ft | 451 kts | 216° |
| 2026-04-21 12:10 | 31.51768 | 122.50969 | 32138 ft | 450 kts | 220° |
| 2026-04-21 12:10 | 31.47430 | 122.47511 | 32142 ft | 453 kts | 216° |
| 2026-04-21 12:11 | 31.41883 | 122.43941 | 32136 ft | 456 kts | 210° |
| 2026-04-21 12:11 | 31.36044 | 122.41051 | 32137 ft | 459 kts | 205° |
| 2026-04-21 12:12 | 31.30040 | 122.38372 | 32127 ft | 461 kts | 206° |
| 2026-04-21 12:12 | 31.23063 | 122.35263 | 32127 ft | 461 kts | 206° |
| 2026-04-21 12:13 | 31.18071 | 122.33041 | 32063 ft | 457 kts | 205° |
| 2026-04-21 12:13 | 31.15123 | 122.31734 | 31581 ft | 453 kts | 205° |
| 2026-04-21 12:13 | 31.12180 | 122.30428 | 30572 ft | 457 kts | 206° |
| 2026-04-21 12:13 | 31.09212 | 122.29110 | 29421 ft | 461 kts | 206° |
| 2026-04-21 12:14 | 31.06206 | 122.27774 | 28315 ft | 463 kts | 205° |
| 2026-04-21 12:14 | 31.03205 | 122.26443 | 27161 ft | 465 kts | 205° |
| 2026-04-21 12:14 | 31.00167 | 122.25156 | 25913 ft | 471 kts | 202° |
| 2026-04-21 12:14 | 30.97029 | 122.24030 | 24605 ft | 476 kts | 200° |
| 2026-04-21 12:15 | 30.93855 | 122.22966 | 23323 ft | 479 kts | 199° |
| 2026-04-21 12:15 | 30.90679 | 122.21909 | 22365 ft | 475 kts | 199° |
| 2026-04-21 12:15 | 30.87529 | 122.20866 | 21691 ft | 466 kts | 199° |
| 2026-04-21 12:15 | 30.84431 | 122.19836 | 20900 ft | 460 kts | 200° |
| 2026-04-21 12:16 | 30.81537 | 122.18427 | 20237 ft | 449 kts | 213° |
| 2026-04-21 12:16 | 30.78380 | 122.15312 | 19765 ft | 442 kts | 232° |
| 2026-04-21 12:16 | 30.77194 | 122.13401 | 19716 ft | 441 kts | 238° |
| 2026-04-21 12:16 | 30.75528 | 122.10430 | 19604 ft | 434 kts | 238° |
| 2026-04-21 12:17 | 30.73900 | 122.07522 | 19321 ft | 431 kts | 239° |
| 2026-04-21 12:17 | 30.72280 | 122.04628 | 19096 ft | 419 kts | 239° |
| 2026-04-21 12:17 | 30.70726 | 122.01859 | 18865 ft | 402 kts | 239° |
| 2026-04-21 12:17 | 30.69224 | 121.99185 | 18630 ft | 387 kts | 239° |
| 2026-04-21 12:18 | 30.67782 | 121.96620 | 18393 ft | 374 kts | 239° |
| 2026-04-21 12:18 | 30.66368 | 121.94106 | 18157 ft | 369 kts | 239° |
| 2026-04-21 12:18 | 30.64974 | 121.91628 | 17938 ft | 368 kts | 239° |
| 2026-04-21 12:18 | 30.63115 | 121.88322 | 17659 ft | 366 kts | 239° |
| 2026-04-21 12:19 | 30.62181 | 121.86663 | 17513 ft | 365 kts | 239° |
| 2026-04-21 12:19 | 30.60809 | 121.84230 | 17294 ft | 364 kts | 239° |
| 2026-04-21 12:19 | 30.59419 | 121.81766 | 17058 ft | 363 kts | 239° |
| 2026-04-21 12:19 | 30.57579 | 121.78507 | 16780 ft | 362 kts | 239° |
| 2026-04-21 12:20 | 30.56207 | 121.76079 | 16565 ft | 361 kts | 239° |
| 2026-04-21 12:20 | 30.55292 | 121.74459 | 16426 ft | 359 kts | 239° |
| 2026-04-21 12:20 | 30.55065 | 121.74058 | 16389 ft | 359 kts | 239° |
| 2026-04-21 12:20 | 30.53259 | 121.70862 | 16087 ft | 358 kts | 239° |
| 2026-04-21 12:21 | 30.52358 | 121.69269 | 15930 ft | 358 kts | 239° |
| 2026-04-21 12:21 | 30.50996 | 121.66867 | 15713 ft | 357 kts | 239° |
| 2026-04-21 12:21 | 30.49629 | 121.64458 | 15504 ft | 355 kts | 239° |
| 2026-04-21 12:21 | 30.48276 | 121.62068 | 15288 ft | 354 kts | 239° |
| 2026-04-21 12:22 | 30.46474 | 121.58890 | 15006 ft | 353 kts | 239° |
| 2026-04-21 12:22 | 30.45571 | 121.57302 | 14863 ft | 352 kts | 239° |
| 2026-04-21 12:22 | 30.44232 | 121.54943 | 14651 ft | 351 kts | 238° |
| 2026-04-21 12:22 | 30.42451 | 121.51811 | 14376 ft | 350 kts | 238° |
| 2026-04-21 12:23 | 30.41558 | 121.50243 | 14235 ft | 349 kts | 239° |
| 2026-04-21 12:23 | 30.40238 | 121.47924 | 14012 ft | 347 kts | 239° |
| 2026-04-21 12:23 | 30.38894 | 121.45566 | 13795 ft | 347 kts | 239° |
| 2026-04-21 12:23 | 30.37577 | 121.43255 | 13601 ft | 345 kts | 239° |
| 2026-04-21 12:24 | 30.36264 | 121.40947 | 13390 ft | 345 kts | 239° |
| 2026-04-21 12:24 | 30.34938 | 121.38618 | 13176 ft | 343 kts | 239° |
| 2026-04-21 12:24 | 30.33640 | 121.36322 | 12943 ft | 343 kts | 239° |
| 2026-04-21 12:24 | 30.32343 | 121.34026 | 12735 ft | 342 kts | 238° |
| 2026-04-21 12:25 | 30.31065 | 121.31763 | 12529 ft | 340 kts | 238° |
| 2026-04-21 12:25 | 30.29785 | 121.29503 | 12309 ft | 339 kts | 238° |
| 2026-04-21 12:25 | 30.28492 | 121.27218 | 12099 ft | 338 kts | 238° |
| 2026-04-21 12:25 | 30.27207 | 121.24953 | 11871 ft | 336 kts | 238° |
| 2026-04-21 12:26 | 30.25933 | 121.22718 | 11649 ft | 335 kts | 237° |
| 2026-04-21 12:26 | 30.24559 | 121.20510 | 11427 ft | 334 kts | 235° |
| 2026-04-21 12:26 | 30.23188 | 121.18368 | 11192 ft | 333 kts | 235° |
| 2026-04-21 12:26 | 30.21815 | 121.16227 | 10950 ft | 332 kts | 235° |
| 2026-04-21 12:27 | 30.20449 | 121.14100 | 10709 ft | 331 kts | 235° |
| 2026-04-21 12:27 | 30.19070 | 121.11951 | 10465 ft | 331 kts | 235° |
| 2026-04-21 12:27 | 30.17705 | 121.09827 | 10219 ft | 330 kts | 235° |
| 2026-04-21 12:27 | 30.16340 | 121.07704 | 9974 ft | 329 kts | 234° |
| 2026-04-21 12:28 | 30.14982 | 121.05596 | 9819 ft | 328 kts | 234° |
| 2026-04-21 12:28 | 30.13611 | 121.03468 | 9718 ft | 327 kts | 235° |
| 2026-04-21 12:28 | 30.12268 | 121.01376 | 9622 ft | 326 kts | 234° |
| 2026-04-21 12:28 | 30.10911 | 120.99268 | 9503 ft | 318 kts | 234° |
| 2026-04-21 12:29 | 30.09627 | 120.97280 | 9356 ft | 304 kts | 234° |
| 2026-04-21 12:29 | 30.08383 | 120.95350 | 9216 ft | 290 kts | 234° |
| 2026-04-21 12:29 | 30.06837 | 120.92939 | 9054 ft | 273 kts | 234° |
| 2026-04-21 12:29 | 30.06105 | 120.91797 | 8970 ft | 265 kts | 234° |
| 2026-04-21 12:30 | 30.05008 | 120.90084 | 8843 ft | 263 kts | 234° |
| 2026-04-21 12:30 | 30.03934 | 120.88388 | 8724 ft | 262 kts | 238° |
| 2026-04-21 12:30 | 30.03214 | 120.86462 | 8590 ft | 262 kts | 256° |
| 2026-04-21 12:30 | 30.03091 | 120.84373 | 8462 ft | 264 kts | 273° |
| 2026-04-21 12:31 | 30.03769 | 120.81653 | 8308 ft | 269 kts | 288° |
| 2026-04-21 12:31 | 30.04242 | 120.80313 | 8226 ft | 269 kts | 288° |
| 2026-04-21 12:31 | 30.04948 | 120.78340 | 8109 ft | 268 kts | 288° |
| 2026-04-21 12:31 | 30.05668 | 120.76327 | 7983 ft | 268 kts | 288° |
| 2026-04-21 12:32 | 30.06370 | 120.74353 | 7864 ft | 267 kts | 288° |
| 2026-04-21 12:32 | 30.07079 | 120.72360 | 7853 ft | 267 kts | 288° |
| 2026-04-21 12:32 | 30.07780 | 120.70379 | 7860 ft | 268 kts | 288° |
| 2026-04-21 12:32 | 30.08721 | 120.67718 | 7847 ft | 268 kts | 288° |
| 2026-04-21 12:33 | 30.09191 | 120.66389 | 7848 ft | 267 kts | 288° |
| 2026-04-21 12:33 | 30.09886 | 120.64418 | 7839 ft | 268 kts | 288° |
| 2026-04-21 12:33 | 30.10597 | 120.62405 | 7844 ft | 267 kts | 288° |
| 2026-04-21 12:33 | 30.11295 | 120.60420 | 7842 ft | 268 kts | 288° |
| 2026-04-21 12:34 | 30.11980 | 120.58482 | 7834 ft | 255 kts | 288° |
| 2026-04-21 12:34 | 30.12634 | 120.56631 | 7831 ft | 246 kts | 287° |
| 2026-04-21 12:34 | 30.13282 | 120.54789 | 7800 ft | 243 kts | 287° |
| 2026-04-21 12:34 | 30.14119 | 120.52401 | 7345 ft | 243 kts | 287° |
| 2026-04-21 12:35 | 30.14541 | 120.51202 | 7090 ft | 243 kts | 287° |
| 2026-04-21 12:35 | 30.15177 | 120.49394 | 6748 ft | 241 kts | 287° |
| 2026-04-21 12:35 | 30.15774 | 120.47583 | 6403 ft | 238 kts | 278° |
| 2026-04-21 12:35 | 30.15611 | 120.45175 | 5934 ft | 224 kts | 244° |
| 2026-04-21 12:36 | 30.14902 | 120.43577 | 5850 ft | 226 kts | 240° |
| 2026-04-21 12:36 | 30.14416 | 120.42505 | 5847 ft | 228 kts | 241° |
| 2026-04-21 12:36 | 30.13688 | 120.40884 | 5747 ft | 224 kts | 241° |
| 2026-04-21 12:36 | 30.12977 | 120.39292 | 5356 ft | 227 kts | 240° |
| 2026-04-21 12:37 | 30.12251 | 120.37659 | 4968 ft | 229 kts | 240° |
| 2026-04-21 12:37 | 30.11529 | 120.36035 | 4763 ft | 221 kts | 240° |
| 2026-04-21 12:37 | 30.10835 | 120.34475 | 4471 ft | 219 kts | 239° |
| 2026-04-21 12:37 | 30.10137 | 120.32909 | 4121 ft | 220 kts | 238° |
| 2026-04-21 12:38 | 30.09439 | 120.31345 | 3939 ft | 219 kts | 238° |
| 2026-04-21 12:38 | 30.08732 | 120.29766 | 3940 ft | 221 kts | 238° |
| 2026-04-21 12:38 | 30.08040 | 120.28215 | 3922 ft | 211 kts | 238° |
| 2026-04-21 12:38 | 30.07404 | 120.26735 | 3807 ft | 202 kts | 245° |
| 2026-04-21 12:39 | 30.07336 | 120.25147 | 3634 ft | 208 kts | 285° |
| 2026-04-21 12:39 | 30.08170 | 120.23816 | 3595 ft | 202 kts | 317° |
| 2026-04-21 12:39 | 30.09382 | 120.23005 | 3291 ft | 205 kts | 330° |
| 2026-04-21 12:39 | 30.11115 | 120.22071 | 2940 ft | 207 kts | 333° |
| 2026-04-21 12:40 | 30.11982 | 120.21598 | 2924 ft | 206 kts | 332° |
| 2026-04-21 12:40 | 30.13276 | 120.20879 | 2920 ft | 206 kts | 335° |
| 2026-04-21 12:40 | 30.14689 | 120.20721 | 2890 ft | 205 kts | 19° |
| 2026-04-21 12:40 | 30.15751 | 120.21705 | 2922 ft | 196 kts | 63° |
| 2026-04-21 12:41 | 30.16324 | 120.23112 | 2938 ft | 193 kts | 73° |
| 2026-04-21 12:41 | 30.16802 | 120.24550 | 2933 ft | 192 kts | 75° |
| 2026-04-21 12:41 | 30.17485 | 120.26466 | 2702 ft | 193 kts | 70° |
| 2026-04-21 12:41 | 30.17871 | 120.27388 | 2560 ft | 191 kts | 69° |
| 2026-04-21 12:42 | 30.18470 | 120.28748 | 2357 ft | 189 kts | 67° |
| 2026-04-21 12:42 | 30.19074 | 120.30101 | 2136 ft | 186 kts | 67° |
| 2026-04-21 12:42 | 30.19650 | 120.31396 | 1945 ft | 173 kts | 66° |
| 2026-04-21 12:42 | 30.20167 | 120.32555 | 1894 ft | 150 kts | 68° |
| 2026-04-21 12:43 | 30.20627 | 120.33591 | 1641 ft | 141 kts | 68° |
| 2026-04-21 12:43 | 30.21094 | 120.34589 | 1212 ft | 144 kts | 64° |
| 2026-04-21 12:43 | 30.21571 | 120.35574 | 885 ft | 138 kts | 65° |
| 2026-04-21 12:43 | 30.22014 | 120.36542 | 551 ft | 133 kts | 68° |
| 2026-04-21 12:44 | 30.22384 | 120.37507 | 360 ft | 131 kts | 70° |
| 2026-04-21 12:44 | 30.22774 | 120.38456 | 332 ft | 132 kts | 66° |
| 2026-04-21 12:44 | 30.23192 | 120.39407 | 220 ft | 131 kts | 66° |
| 2026-04-21 12:44 | 30.23612 | 120.40336 | 133 ft | 129 kts | 66° |
| 2026-04-21 12:45 | 30.24021 | 120.41265 | 48 ft | 130 kts | 66° |
| 2026-04-21 12:45 | 30.24391 | 120.42128 | 29 ft | 104 kts | 63° |
| 2026-04-21 12:45 | 30.24560 | 120.42685 | 29 ft | 31 kts | 93° |
| 2026-04-21 12:45 | 30.24519 | 120.42784 | 29 ft | 7 kts | 168° |
| 2026-04-21 12:46 | 30.24497 | 120.42780 | 29 ft | 0 kts | 206° |
| 2026-04-21 12:46 | 30.24506 | 120.42784 | 29 ft | 0 kts | 169° |
| 2026-04-21 12:46 | 30.24498 | 120.42780 | 29 ft | 2 kts | 208° |
| 2026-04-21 12:46 | 30.24481 | 120.42763 | 29 ft | 4 kts | 223° |
| 2026-04-21 12:47 | 30.24442 | 120.42744 | 29 ft | 5 kts | 179° |
| 2026-04-21 12:47 | 30.24416 | 120.42753 | 29 ft | 6 kts | 153° |
| 2026-04-21 12:47 | 30.24373 | 120.42780 | 29 ft | 7 kts | 148° |
| 2026-04-21 12:47 | 30.24323 | 120.42800 | 29 ft | 8 kts | 199° |
| 2026-04-21 12:48 | 30.24270 | 120.42791 | 29 ft | 6 kts | 157° |
| 2026-04-21 12:48 | 30.24226 | 120.42821 | 29 ft | 7 kts | 155° |
| 2026-04-21 12:48 | 30.24172 | 120.42853 | 29 ft | 9 kts | 155° |
| 2026-04-21 12:48 | 30.24144 | 120.42844 | 29 ft | 4 kts | 249° |
| 2026-04-21 12:49 | 30.24129 | 120.42818 | 29 ft | 3 kts | 227° |
| 2026-04-21 12:49 | 30.24124 | 120.42810 | 29 ft | 2 kts | 231° |
| 2026-04-21 12:49 | 30.24123 | 120.42808 | 29 ft | 0 kts | 232° |